Longshot, Mississippi
Current Conditions -  °F | °C
As of 9:53 PM on Friday 28 Nov 2014 (Local Time) from KGLH Reporting Station
Clear Clear  
Wind Chill: 41°   Ceiling: Unl
Heat Index: 47°   Visibility: 10mi
Dew Point: 32°   Wind: 13mph
Humidity: 56%   Direction: 170°S
Pressure: 30.14"   Gusts: NA
Location:  33.6504°N, 91.0785°W
Report Text: KGLH 290353Z AUTO 17011KT 10SM CLR 08/00 A3014 RMK AO2 SLP214 T00830000
Loading
Personal Weather Stations






























Interactive Weather Map New forecast layout! Learn more

10-Day Weather Forecast

Advertisements
Track Severe Weather on mobile